Time;durP1;ratioP1;P1;durP2;ratioP2;P2;SDS_P1;SDS_P2;PMS_P1;PMS_P2;Temp;Humidity;BMP_temperature;BMP_pressure;BME280_temperature;BME280_humidity;BME280_pressure;Samples;Min_cycle;Max_cycle;Signal;HPM_P1;HPM_P2
2021/05/16 00:00:32;;;;;;;4.93;4.43;;;10.80;98.90;;;;;;2056484;28;20030;-73
2021/05/16 00:01:32;;;;;;;4.97;4.10;;;10.80;98.80;;;;;;2056445;28;20025;-73
2021/05/16 00:02:33;;;;;;;4.93;4.03;;;10.80;98.80;;;;;;2056350;28;20035;-73
2021/05/16 00:03:34;;;;;;;4.57;4.00;;;10.80;98.70;;;;;;2056364;28;20102;-73
2021/05/16 00:04:35;;;;;;;5.25;3.78;;;10.80;98.70;;;;;;2056380;28;20054;-73
2021/05/16 00:05:36;;;;;;;5.38;3.47;;;10.90;98.60;;;;;;2047779;29;20039;-73
2021/05/16 00:06:36;;;;;;;3.88;3.50;;;10.90;98.60;;;;;;2047351;28;20090;-74
2021/05/16 00:07:37;;;;;;;3.70;3.40;;;10.90;98.50;;;;;;2056091;28;20026;-73
2021/05/16 00:08:37;;;;;;;5.13;3.50;;;10.90;98.40;;;;;;2056022;28;20058;-74
2021/05/16 00:09:40;;;;;;;3.67;3.22;;;10.90;98.40;;;;;;2055917;28;20081;-74
2021/05/16 00:10:41;;;;;;;3.40;3.10;;;11.00;98.40;;;;;;2056015;28;20023;-74
2021/05/16 00:11:42;;;;;;;5.65;3.65;;;11.00;98.40;;;;;;2056706;28;20053;-74
2021/05/16 00:12:43;;;;;;;4.25;3.50;;;11.00;98.40;;;;;;2049142;29;20023;-73
2021/05/16 00:13:44;;;;;;;4.35;3.50;;;11.00;98.40;;;;;;2049221;29;20118;-74
2021/05/16 00:14:48;;;;;;;5.05;4.00;;;11.00;98.30;;;;;;2057724;28;20022;-74
2021/05/16 00:15:51;;;;;;;4.78;3.88;;;11.10;98.20;;;;;;2057607;28;20130;-74
2021/05/16 00:16:53;;;;;;;4.80;3.85;;;11.10;98.20;;;;;;2057602;28;20026;-74
2021/05/16 00:17:54;;;;;;;4.15;3.75;;;11.10;98.30;;;;;;2057826;28;20509;-74
2021/05/16 00:18:55;;;;;;;4.13;3.67;;;11.10;98.00;;;;;;2048956;29;20034;-74
2021/05/16 00:19:55;;;;;;;4.47;3.50;;;11.10;98.20;;;;;;2049196;29;20039;-74
2021/05/16 00:20:56;;;;;;;3.90;3.50;;;11.10;98.10;;;;;;2057957;28;20038;-74
2021/05/16 00:21:57;;;;;;;3.88;3.50;;;11.10;98.10;;;;;;2057776;28;20066;-73
2021/05/16 00:22:58;;;;;;;3.88;3.22;;;11.10;97.90;;;;;;2058132;28;20041;-73
2021/05/16 00:23:58;;;;;;;4.57;3.95;;;11.10;97.90;;;;;;2058021;28;20944;-74
2021/05/16 00:24:59;;;;;;;4.80;3.80;;;11.10;97.90;;;;;;2049600;29;20042;-74
2021/05/16 00:26:00;;;;;;;4.00;3.55;;;11.10;97.80;;;;;;2049313;29;20102;-73
2021/05/16 00:27:00;;;;;;;4.78;3.58;;;11.10;97.90;;;;;;2049428;28;20034;-72
2021/05/16 00:28:02;;;;;;;5.43;3.67;;;11.10;98.00;;;;;;2049577;29;20074;-73
2021/05/16 00:29:03;;;;;;;4.20;3.80;;;11.10;98.00;;;;;;2058173;28;20026;-72
2021/05/16 00:30:06;;;;;;;4.70;3.90;;;11.10;98.00;;;;;;2058336;28;20026;-72
2021/05/16 00:31:07;;;;;;;5.32;3.90;;;11.00;98.00;;;;;;2058218;28;20038;-72
2021/05/16 00:32:08;;;;;;;3.97;3.58;;;11.10;98.00;;;;;;2058385;28;20469;-73
2021/05/16 00:33:08;;;;;;;4.43;3.55;;;11.10;98.00;;;;;;2058080;28;20027;-73
2021/05/16 00:34:09;;;;;;;4.25;3.83;;;11.10;97.90;;;;;;2057879;28;20537;-73
2021/05/16 00:35:12;;;;;;;5.78;4.00;;;11.10;98.10;;;;;;2058634;28;20110;-72
2021/05/16 00:36:12;;;;;;;5.20;3.80;;;11.10;98.10;;;;;;2058039;28;20042;-73
2021/05/16 00:37:13;;;;;;;4.18;3.70;;;11.10;98.00;;;;;;2058407;28;20030;-72
2021/05/16 00:38:14;;;;;;;4.18;3.72;;;11.10;98.00;;;;;;2057729;28;20019;-73
2021/05/16 00:39:14;;;;;;;4.15;3.50;;;11.10;98.00;;;;;;2057402;28;20082;-73
2021/05/16 00:40:16;;;;;;;4.10;3.60;;;11.10;98.00;;;;;;2049062;29;20103;-73
2021/05/16 00:41:18;;;;;;;3.67;3.38;;;11.10;97.90;;;;;;2049408;28;20039;-73
2021/05/16 00:42:19;;;;;;;3.67;3.38;;;11.10;97.90;;;;;;2041976;29;20522;-73
2021/05/16 00:43:20;;;;;;;3.50;3.20;;;11.10;98.00;;;;;;2041564;29;20038;-73
2021/05/16 00:44:22;;;;;;;3.58;3.05;;;11.10;97.80;;;;;;2057718;28;20026;-73
2021/05/16 00:45:25;;;;;;;4.78;3.15;;;11.00;97.90;;;;;;2057881;28;20030;-71
2021/05/16 00:46:26;;;;;;;3.50;3.20;;;11.10;97.70;;;;;;2056961;28;20027;-73
2021/05/16 00:47:27;;;;;;;3.92;3.00;;;11.00;97.70;;;;;;2057396;28;20019;-73
2021/05/16 00:48:27;;;;;;;3.35;3.05;;;11.00;97.80;;;;;;2057399;28;20038;-72
2021/05/16 00:49:30;;;;;;;3.72;3.20;;;11.00;98.00;;;;;;2040824;29;20815;-73
2021/05/16 00:50:45;;;;;;;3.60;3.28;;;11.00;97.90;;;;;;2041032;28;20020;-74
2021/05/16 00:51:45;;;;;;;3.90;3.40;;;11.00;97.90;;;;;;2048547;29;20086;-72
2021/05/16 00:52:46;;;;;;;3.97;3.65;;;11.00;97.80;;;;;;2049005;29;20031;-73
2021/05/16 00:53:47;;;;;;;4.50;3.60;;;11.00;97.40;;;;;;2057442;28;20394;-73
2021/05/16 00:54:50;;;;;;;4.07;3.67;;;11.00;97.60;;;;;;2048774;29;20477;-73
2021/05/16 00:55:54;;;;;;;4.43;3.60;;;11.00;97.60;;;;;;2048514;29;20027;-73
2021/05/16 00:56:56;;;;;;;4.00;3.60;;;11.00;97.50;;;;;;2048632;28;20031;-72
2021/05/16 00:57:57;;;;;;;4.30;3.70;;;10.90;97.60;;;;;;2040965;29;20067;-72
2021/05/16 00:58:59;;;;;;;3.80;3.45;;;10.90;97.70;;;;;;2041062;29;20066;-73
2021/05/16 01:00:00;;;;;;;4.18;3.47;;;10.90;97.40;;;;;;2049216;28;20119;-73
2021/05/16 01:01:08;;;;;;;3.92;3.47;;;10.90;97.40;;;;;;2048773;29;20422;-72
2021/05/16 01:02:09;;;;;;;3.80;3.40;;;10.90;97.90;;;;;;2048851;29;20075;-72
2021/05/16 01:03:12;;;;;;;3.55;3.20;;;10.90;97.50;;;;;;2049014;28;20023;-73
2021/05/16 01:04:13;;;;;;;3.67;3.38;;;10.90;97.40;;;;;;2048874;29;20031;-73
2021/05/16 01:05:15;;;;;;;3.70;3.30;;;10.90;97.40;;;;;;2041085;29;20036;-73
2021/05/16 01:06:16;;;;;;;3.72;3.30;;;10.90;97.50;;;;;;2048476;28;20051;-73
2021/05/16 01:07:17;;;;;;;3.70;3.35;;;10.90;97.40;;;;;;2048816;29;20069;-72
2021/05/16 01:08:17;;;;;;;3.63;3.33;;;10.90;97.40;;;;;;2048791;29;20043;-72
2021/05/16 01:09:18;;;;;;;3.88;3.55;;;10.90;97.40;;;;;;2040669;29;20027;-72
2021/05/16 01:10:20;;;;;;;3.78;3.47;;;11.00;97.50;;;;;;2033024;29;20051;-72
2021/05/16 01:11:22;;;;;;;3.90;3.58;;;11.00;97.40;;;;;;2033267;29;20036;-72
2021/05/16 01:12:30;;;;;;;4.00;3.60;;;11.00;97.10;;;;;;2033096;29;20028;-72
2021/05/16 01:13:31;;;;;;;3.80;3.50;;;11.00;97.20;;;;;;2048657;29;20116;-73
2021/05/16 01:14:34;;;;;;;4.05;3.30;;;11.00;97.20;;;;;;2040861;29;20040;-73
2021/05/16 01:15:37;;;;;;;3.22;2.90;;;11.00;97.30;;;;;;2040942;29;20082;-72
2021/05/16 01:16:38;;;;;;;3.95;3.35;;;11.00;97.30;;;;;;2032980;29;20128;-72
2021/05/16 01:17:39;;;;;;;3.78;2.97;;;11.00;97.30;;;;;;2040909;29;20091;-72
2021/05/16 01:18:40;;;;;;;3.50;3.03;;;11.00;97.30;;;;;;2032953;29;20028;-73
2021/05/16 01:19:42;;;;;;;3.20;2.90;;;11.00;97.30;;;;;;2040981;29;20032;-72
2021/05/16 01:20:46;;;;;;;3.72;3.00;;;11.00;97.10;;;;;;2048710;29;20078;-73
2021/05/16 01:21:48;;;;;;;3.20;2.90;;;11.00;97.30;;;;;;2049306;29;20106;-73
2021/05/16 01:23:02;;;;;;;3.10;2.80;;;11.00;97.30;;;;;;2049266;28;20032;-73
2021/05/16 01:24:14;;;;;;;2.88;2.65;;;11.00;97.30;;;;;;2040717;29;20857;-73
2021/05/16 01:25:20;;;;;;;3.03;2.78;;;11.00;97.30;;;;;;2040890;29;20040;-73
2021/05/16 01:26:20;;;;;;;3.28;2.97;;;11.00;97.30;;;;;;2040564;29;20083;-73
2021/05/16 01:27:21;;;;;;;5.68;3.00;;;10.90;97.30;;;;;;2041022;29;20056;-73
2021/05/16 01:28:22;;;;;;;3.22;2.92;;;11.00;97.30;;;;;;2040775;29;20114;-73
2021/05/16 01:29:24;;;;;;;3.65;2.90;;;11.00;97.20;;;;;;2040882;29;20419;-73
2021/05/16 01:30:25;;;;;;;3.55;3.10;;;11.00;97.20;;;;;;2040769;29;20114;-73
2021/05/16 01:31:26;;;;;;;3.05;2.85;;;11.00;97.10;;;;;;2040861;29;20028;-72
2021/05/16 01:32:26;;;;;;;3.17;2.83;;;11.00;97.10;;;;;;2040931;29;20039;-73
2021/05/16 01:33:27;;;;;;;3.67;2.83;;;11.00;97.00;;;;;;2040970;29;20044;-72
2021/05/16 01:34:28;;;;;;;3.25;2.65;;;11.00;96.90;;;;;;2040767;29;20448;-73
2021/05/16 01:35:30;;;;;;;3.10;2.90;;;11.00;97.00;;;;;;2032887;29;20036;-73
2021/05/16 01:36:33;;;;;;;3.28;2.97;;;11.00;97.10;;;;;;2037021;29;20361;-73
2021/05/16 01:37:34;;;;;;;4.18;3.08;;;11.00;97.20;;;;;;2048701;29;20030;-72
2021/05/16 01:38:35;;;;;;;4.30;3.55;;;11.00;97.10;;;;;;2049061;29;20122;-73
2021/05/16 01:39:37;;;;;;;4.65;3.55;;;11.00;97.40;;;;;;2048749;29;20050;-73
2021/05/16 01:40:40;;;;;;;3.70;3.40;;;11.00;97.10;;;;;;2057167;28;20114;-73
2021/05/16 01:41:50;;;;;;;4.30;3.88;;;11.00;97.20;;;;;;2048663;29;20155;-73
2021/05/16 01:42:53;;;;;;;4.05;3.60;;;11.00;97.00;;;;;;2040949;29;20032;-73
2021/05/16 01:43:55;;;;;;;4.07;3.70;;;11.00;97.00;;;;;;2049018;28;20039;-72
2021/05/16 01:45:02;;;;;;;3.78;3.47;;;11.00;97.00;;;;;;2048604;29;20035;-73
2021/05/16 01:46:04;;;;;;;5.07;3.90;;;11.00;97.00;;;;;;2049157;28;20439;-73
2021/05/16 01:47:05;;;;;;;4.85;3.45;;;11.00;97.00;;;;;;2048397;28;20063;-73
2021/05/16 01:48:06;;;;;;;4.43;3.53;;;11.00;96.90;;;;;;2048628;28;20039;-72
2021/05/16 01:49:06;;;;;;;4.22;3.22;;;11.00;96.80;;;;;;2057168;28;20084;-73
2021/05/16 01:50:14;;;;;;;4.05;3.40;;;11.00;96.70;;;;;;2056972;28;20033;-73
2021/05/16 01:51:15;;;;;;;3.40;3.10;;;11.00;96.80;;;;;;2057305;28;20027;-73
2021/05/16 01:52:16;;;;;;;4.13;3.60;;;11.00;97.10;;;;;;2040534;29;20066;-73
2021/05/16 01:53:17;;;;;;;3.30;3.00;;;11.00;96.80;;;;;;2040546;29;20043;-73
2021/05/16 01:54:18;;;;;;;3.65;3.08;;;10.90;96.80;;;;;;2040310;29;20096;-73
2021/05/16 01:55:19;;;;;;;3.70;2.90;;;10.90;96.90;;;;;;2048196;28;20035;-73
2021/05/16 01:56:26;;;;;;;3.92;2.88;;;10.90;97.00;;;;;;2056075;28;20525;-72
2021/05/16 01:57:28;;;;;;;3.00;2.80;;;10.90;97.20;;;;;;2057054;28;20023;-74
2021/05/16 01:58:29;;;;;;;3.22;2.78;;;10.90;97.20;;;;;;2048339;29;20031;-73
2021/05/16 01:59:30;;;;;;;2.90;2.65;;;10.90;97.20;;;;;;2048299;28;20086;-73
2021/05/16 02:00:34;;;;;;;3.42;3.03;;;10.90;97.20;;;;;;2056917;28;20030;-73
2021/05/16 02:01:39;;;;;;;3.10;2.70;;;10.90;97.20;;;;;;2057018;28;20490;-73
2021/05/16 02:02:41;;;;;;;3.05;2.78;;;10.90;97.30;;;;;;2056969;28;20494;-73
2021/05/16 02:03:43;;;;;;;3.45;3.15;;;11.00;97.20;;;;;;2048310;29;20031;-74
2021/05/16 02:04:45;;;;;;;3.80;2.95;;;11.00;97.20;;;;;;2048428;28;20032;-73
2021/05/16 02:05:49;;;;;;;3.00;2.80;;;10.90;96.90;;;;;;2048364;29;20106;-73
2021/05/16 02:06:50;;;;;;;3.00;2.80;;;10.90;97.00;;;;;;2048308;28;20038;-74
2021/05/16 02:07:52;;;;;;;4.68;3.13;;;10.90;96.90;;;;;;2048386;29;20542;-73
2021/05/16 02:08:53;;;;;;;5.00;3.80;;;10.90;96.90;;;;;;2040559;29;20543;-73
2021/05/16 02:10:03;;;;;;;3.80;3.35;;;11.00;96.40;;;;;;2048282;29;20368;-73
2021/05/16 02:11:04;;;;;;;3.70;3.40;;;11.00;96.40;;;;;;2048664;28;20016;-73
2021/05/16 02:12:09;;;;;;;7.15;4.88;;;11.00;96.40;;;;;;2056985;28;20023;-73
2021/05/16 02:13:10;;;;;;;7.45;5.13;;;11.00;96.50;;;;;;2057019;28;20033;-73
2021/05/16 02:14:22;;;;;;;7.22;4.75;;;10.90;96.70;;;;;;2048186;29;20525;-73
2021/05/16 02:15:22;;;;;;;5.25;3.83;;;11.00;96.90;;;;;;2049579;28;20087;-73
2021/05/16 02:16:23;;;;;;;5.10;3.95;;;11.00;96.90;;;;;;2056392;28;20102;-73
2021/05/16 02:17:30;;;;;;;4.30;3.70;;;11.00;97.00;;;;;;2056995;28;20031;-74
2021/05/16 02:18:31;;;;;;;4.78;3.60;;;11.00;96.90;;;;;;2056724;28;20427;-73
2021/05/16 02:19:32;;;;;;;4.43;3.35;;;10.90;96.90;;;;;;2056222;28;20518;-73
2021/05/16 02:20:34;;;;;;;4.15;3.45;;;11.00;97.00;;;;;;2048039;29;20023;-73
2021/05/16 02:21:35;;;;;;;5.03;3.83;;;11.00;97.10;;;;;;2048141;28;20031;-73
2021/05/16 02:22:35;;;;;;;4.07;3.65;;;10.90;97.00;;;;;;2056828;28;20037;-72
2021/05/16 02:23:38;;;;;;;4.43;3.85;;;11.00;97.10;;;;;;2048407;29;20023;-73
2021/05/16 02:24:42;;;;;;;5.20;4.10;;;10.90;97.00;;;;;;2048127;28;20031;-73
2021/05/16 02:25:50;;;;;;;4.63;4.13;;;11.00;97.20;;;;;;2049425;28;20046;-73
2021/05/16 02:26:59;;;;;;;4.88;3.80;;;10.90;97.20;;;;;;2048092;28;20027;-72
2021/05/16 02:28:02;;;;;;;6.05;4.53;;;10.90;97.30;;;;;;2048229;29;20031;-71
2021/05/16 02:29:04;;;;;;;5.18;4.55;;;10.90;97.30;;;;;;2040336;29;20599;-72
2021/05/16 02:30:08;;;;;;;8.13;5.18;;;10.90;97.20;;;;;;2048351;28;20019;-72
2021/05/16 02:31:17;;;;;;;9.00;5.38;;;10.90;97.40;;;;;;2056749;28;20066;-72
2021/05/16 02:32:19;;;;;;;7.78;5.32;;;10.90;97.70;;;;;;2056055;28;20034;-73
2021/05/16 02:33:21;;;;;;;6.60;4.75;;;10.90;98.00;;;;;;2055615;28;20022;-72
2021/05/16 02:34:22;;;;;;;5.57;4.28;;;10.90;97.90;;;;;;2047529;28;20491;-72
2021/05/16 02:35:23;;;;;;;5.00;3.92;;;10.90;98.00;;;;;;2056636;28;20026;-72
2021/05/16 02:36:31;;;;;;;5.28;4.00;;;10.90;98.00;;;;;;2047635;28;20062;-72
2021/05/16 02:37:32;;;;;;;4.90;3.83;;;10.90;98.10;;;;;;2048285;28;20023;-73
2021/05/16 02:38:33;;;;;;;5.35;4.40;;;10.90;98.40;;;;;;2048034;29;20019;-72
2021/05/16 02:39:34;;;;;;;4.85;3.95;;;10.80;98.50;;;;;;2048199;29;20478;-73
2021/05/16 02:40:35;;;;;;;4.57;3.85;;;10.80;98.50;;;;;;2048131;29;20105;-73
2021/05/16 02:41:36;;;;;;;3.67;3.38;;;10.80;98.50;;;;;;2048026;29;20031;-73
2021/05/16 02:42:38;;;;;;;4.45;3.45;;;10.80;98.50;;;;;;2056176;28;20035;-73
2021/05/16 02:43:40;;;;;;;4.03;3.47;;;10.80;98.60;;;;;;2048293;28;20063;-73
2021/05/16 02:44:41;;;;;;;3.90;3.50;;;10.80;98.60;;;;;;2048122;29;20102;-73
2021/05/16 02:45:42;;;;;;;4.95;3.58;;;10.80;98.70;;;;;;2048227;29;20464;-73
2021/05/16 02:46:49;;;;;;;4.13;3.45;;;10.80;98.80;;;;;;2048803;28;20059;-73
2021/05/16 02:47:50;;;;;;;4.78;3.72;;;10.80;98.70;;;;;;2056344;28;20035;-74
2021/05/16 02:48:55;;;;;;;3.97;3.30;;;10.80;98.50;;;;;;2056404;28;20046;-73
2021/05/16 02:49:56;;;;;;;4.22;3.67;;;10.80;98.70;;;;;;2056678;28;20395;-73
2021/05/16 02:50:57;;;;;;;3.97;3.50;;;10.80;98.80;;;;;;2056808;28;20019;-73
2021/05/16 02:52:04;;;;;;;3.95;3.30;;;10.90;98.90;;;;;;2056565;28;20034;-72
2021/05/16 02:53:05;;;;;;;6.47;4.22;;;10.90;99.10;;;;;;2055822;28;20522;-73
2021/05/16 02:54:25;;;;;;;7.35;3.95;;;10.80;99.20;;;;;;2055568;28;20031;-72
2021/05/16 02:55:26;;;;;;;5.55;4.15;;;10.90;99.20;;;;;;2056488;28;20330;-72
2021/05/16 02:56:27;;;;;;;6.20;4.35;;;10.90;99.10;;;;;;2055484;28;20441;-73
2021/05/16 02:57:28;;;;;;;4.68;4.03;;;10.90;99.10;;;;;;2055833;28;20026;-73
2021/05/16 02:58:29;;;;;;;4.10;3.70;;;10.80;99.10;;;;;;2055948;28;20027;-72
2021/05/16 02:59:32;;;;;;;4.50;3.60;;;10.90;99.10;;;;;;2055836;28;20031;-73
2021/05/16 03:00:32;;;;;;;4.75;3.80;;;10.90;99.20;;;;;;2047878;29;20027;-73
2021/05/16 03:01:33;;;;;;;5.20;3.70;;;10.90;99.20;;;;;;2039949;29;20377;-72
2021/05/16 03:02:34;;;;;;;4.28;3.33;;;10.90;99.20;;;;;;2039976;28;20106;-73
2021/05/16 03:03:35;;;;;;;4.88;3.40;;;10.90;99.10;;;;;;2047940;29;20030;-73
2021/05/16 03:04:39;;;;;;;4.90;3.30;;;10.90;99.20;;;;;;2048159;28;20501;-72
2021/05/16 03:05:40;;;;;;;5.82;3.20;;;10.90;99.10;;;;;;2056368;28;20030;-73
2021/05/16 03:06:41;;;;;;;3.80;3.38;;;10.90;99.10;;;;;;2047125;28;20042;-73
2021/05/16 03:07:42;;;;;;;4.15;3.05;;;10.90;99.10;;;;;;2047817;29;20038;-73
2021/05/16 03:08:43;;;;;;;5.38;3.28;;;10.90;99.10;;;;;;2056224;28;20041;-72
2021/05/16 03:09:43;;;;;;;3.47;2.78;;;10.90;99.10;;;;;;2056365;28;20062;-73
2021/05/16 03:10:44;;;;;;;3.10;2.80;;;10.90;99.40;;;;;;2056378;28;20030;-73
2021/05/16 03:11:45;;;;;;;4.07;3.17;;;10.90;99.10;;;;;;2047804;29;20122;-73
2021/05/16 03:12:47;;;;;;;3.58;2.90;;;10.90;99.10;;;;;;2040109;29;20063;-72
2021/05/16 03:13:50;;;;;;;2.58;2.38;;;10.90;99.10;;;;;;2048261;28;20027;-72
2021/05/16 03:15:05;;;;;;;2.80;2.50;;;10.90;99.20;;;;;;2047778;29;20059;-72
2021/05/16 03:16:05;;;;;;;2.70;2.50;;;10.90;99.20;;;;;;2047504;28;20032;-72
2021/05/16 03:17:06;;;;;;;3.60;2.70;;;10.90;99.20;;;;;;2039699;29;20028;-73
2021/05/16 03:18:08;;;;;;;2.67;2.40;;;10.90;99.10;;;;;;2039938;28;20488;-73
2021/05/16 03:19:09;;;;;;;2.70;2.50;;;11.00;99.20;;;;;;2047716;29;20027;-72
2021/05/16 03:20:18;;;;;;;2.55;2.33;;;10.90;99.20;;;;;;2048793;28;20063;-73
2021/05/16 03:21:20;;;;;;;2.65;2.45;;;11.00;99.20;;;;;;2047537;29;20023;-73
2021/05/16 03:22:21;;;;;;;2.60;2.40;;;11.00;99.20;;;;;;2039893;29;20031;-73
2021/05/16 03:23:22;;;;;;;2.70;2.50;;;11.00;99.20;;;;;;2047678;29;20107;-73
2021/05/16 03:24:23;;;;;;;2.60;2.40;;;11.00;99.20;;;;;;2039730;29;20019;-73
2021/05/16 03:25:24;;;;;;;2.60;2.40;;;11.00;99.20;;;;;;2039995;29;20167;-74
2021/05/16 03:26:25;;;;;;;2.80;2.60;;;11.00;99.20;;;;;;2047347;28;20019;-73
2021/05/16 03:27:26;;;;;;;2.75;2.55;;;11.00;99.30;;;;;;2056240;28;20032;-73
2021/05/16 03:28:30;;;;;;;2.70;2.50;;;11.00;99.20;;;;;;2056111;28;20484;-72
2021/05/16 03:29:32;;;;;;;2.70;2.50;;;11.00;99.20;;;;;;2056126;28;20356;-73
2021/05/16 03:30:32;;;;;;;3.20;2.60;;;11.00;99.20;;;;;;2056333;28;20027;-73
2021/05/16 03:31:34;;;;;;;3.00;2.50;;;11.00;99.20;;;;;;2056462;28;20029;-73
2021/05/16 03:32:36;;;;;;;2.58;2.38;;;11.00;99.20;;;;;;2056471;28;20030;-72
2021/05/16 03:33:36;;;;;;;2.70;2.50;;;11.00;99.10;;;;;;2056521;28;20027;-73
2021/05/16 03:34:37;;;;;;;3.45;2.50;;;11.00;98.90;;;;;;2056423;28;20029;-73
2021/05/16 03:35:37;;;;;;;2.40;2.20;;;11.00;98.90;;;;;;2056361;28;20039;-73
2021/05/16 03:36:38;;;;;;;3.67;2.40;;;11.00;98.80;;;;;;2047137;29;20034;-73
2021/05/16 03:37:39;;;;;;;2.95;2.55;;;10.90;98.60;;;;;;2047670;29;20036;-73
2021/05/16 03:38:40;;;;;;;2.53;2.25;;;11.00;98.70;;;;;;2056178;28;20119;-73
2021/05/16 03:39:41;;;;;;;2.65;2.45;;;10.90;98.80;;;;;;2056153;28;20121;-73
2021/05/16 03:40:42;;;;;;;2.42;2.15;;;10.90;98.80;;;;;;2056229;28;20565;-73
2021/05/16 03:41:43;;;;;;;2.47;2.28;;;10.90;98.80;;;;;;2056299;28;20055;-73
2021/05/16 03:42:43;;;;;;;2.83;2.40;;;10.90;98.90;;;;;;2056277;28;20030;-73
2021/05/16 03:43:45;;;;;;;2.42;2.13;;;10.90;98.80;;;;;;2047422;29;20038;-73
2021/05/16 03:44:45;;;;;;;3.75;2.40;;;11.00;98.90;;;;;;2047802;28;20035;-73
2021/05/16 03:45:47;;;;;;;2.58;2.20;;;10.90;98.80;;;;;;2047558;28;20062;-73
2021/05/16 03:46:47;;;;;;;2.80;2.40;;;11.00;98.80;;;;;;2048028;28;20028;-73
2021/05/16 03:47:48;;;;;;;2.47;2.22;;;11.00;99.00;;;;;;2049387;29;20113;-73
2021/05/16 03:48:49;;;;;;;2.33;2.13;;;11.00;99.00;;;;;;2049331;29;20034;-73
2021/05/16 03:49:49;;;;;;;2.40;2.08;;;11.00;99.10;;;;;;2057729;28;20378;-73
2021/05/16 03:50:50;;;;;;;2.60;2.40;;;11.00;99.00;;;;;;2057873;28;20081;-74
2021/05/16 03:51:51;;;;;;;3.85;2.50;;;11.00;98.80;;;;;;2057873;28;20030;-75
2021/05/16 03:52:51;;;;;;;2.60;2.40;;;11.00;98.80;;;;;;2057799;28;20038;-74
2021/05/16 03:53:52;;;;;;;2.53;2.33;;;11.00;98.90;;;;;;2049270;29;20023;-74
2021/05/16 03:54:53;;;;;;;2.47;2.28;;;11.00;98.90;;;;;;2049276;29;20110;-74
2021/05/16 03:55:53;;;;;;;2.40;2.20;;;11.00;98.90;;;;;;2049209;29;20094;-74
2021/05/16 03:56:54;;;;;;;2.70;2.50;;;11.00;99.00;;;;;;2049487;28;20027;-73
2021/05/16 03:57:55;;;;;;;3.38;3.00;;;11.00;98.90;;;;;;2057770;28;20030;-74
2021/05/16 03:58:55;;;;;;;3.13;2.83;;;11.00;98.50;;;;;;2057673;28;20026;-74
2021/05/16 03:59:56;;;;;;;3.40;2.80;;;11.00;98.70;;;;;;2057617;28;20042;-74
2021/05/16 04:00:57;;;;;;;3.08;2.53;;;11.00;98.80;;;;;;2049048;29;20087;-74
2021/05/16 04:01:58;;;;;;;2.85;2.58;;;11.00;98.80;;;;;;2049222;28;20042;-73
2021/05/16 04:02:58;;;;;;;3.15;2.85;;;11.00;98.60;;;;;;2057622;28;20106;-74
2021/05/16 04:03:59;;;;;;;5.50;3.00;;;11.00;98.70;;;;;;2057490;28;20027;-74
2021/05/16 04:05:00;;;;;;;4.35;2.80;;;11.00;98.80;;;;;;2057602;28;20137;-74
2021/05/16 04:06:01;;;;;;;3.08;2.78;;;11.00;98.90;;;;;;2048544;29;20039;-74
2021/05/16 04:07:02;;;;;;;2.92;2.63;;;11.00;98.70;;;;;;2048964;28;20126;-74
2021/05/16 04:08:03;;;;;;;3.67;3.10;;;11.00;98.80;;;;;;2057522;28;20030;-72
2021/05/16 04:09:04;;;;;;;2.72;2.53;;;11.10;98.80;;;;;;2057514;28;20018;-73
2021/05/16 04:10:06;;;;;;;4.18;3.35;;;11.10;98.80;;;;;;2057469;28;20062;-73
2021/05/16 04:11:06;;;;;;;4.10;3.70;;;11.00;98.50;;;;;;2048962;29;20070;-72
2021/05/16 04:12:07;;;;;;;4.20;3.80;;;11.00;98.50;;;;;;2049017;29;20030;-74
2021/05/16 04:13:08;;;;;;;5.38;4.00;;;11.00;98.40;;;;;;2057553;28;20037;-74
2021/05/16 04:14:08;;;;;;;4.68;3.90;;;11.00;98.60;;;;;;2057651;28;20038;-73
2021/05/16 04:15:09;;;;;;;3.88;3.30;;;11.00;98.50;;;;;;2057598;28;20035;-74
2021/05/16 04:16:10;;;;;;;4.05;3.47;;;11.00;98.60;;;;;;2057285;28;20069;-74
2021/05/16 04:17:11;;;;;;;4.05;3.20;;;11.00;98.80;;;;;;2057505;28;20031;-74
2021/05/16 04:18:11;;;;;;;3.45;3.15;;;11.00;98.90;;;;;;2057549;28;20027;-74
2021/05/16 04:19:13;;;;;;;4.88;3.70;;;11.00;98.90;;;;;;2057545;28;20030;-74
2021/05/16 04:20:14;;;;;;;4.38;3.38;;;11.10;99.00;;;;;;2057564;28;20163;-73
2021/05/16 04:21:14;;;;;;;3.63;3.30;;;11.10;98.90;;;;;;2057384;28;20027;-73
2021/05/16 04:22:15;;;;;;;3.63;3.22;;;11.10;99.00;;;;;;2048837;29;20038;-73
2021/05/16 04:23:16;;;;;;;3.30;3.00;;;11.10;99.00;;;;;;2048866;28;20035;-74
2021/05/16 04:24:16;;;;;;;3.50;3.20;;;11.10;98.90;;;;;;2057483;28;20031;-73
2021/05/16 04:25:17;;;;;;;3.72;3.25;;;11.10;99.00;;;;;;2057422;28;20070;-74
2021/05/16 04:26:18;;;;;;;4.88;3.75;;;11.10;98.90;;;;;;2048496;28;20043;-74
2021/05/16 04:27:19;;;;;;;5.32;3.78;;;11.10;98.70;;;;;;2048907;29;20023;-74
2021/05/16 04:28:19;;;;;;;3.67;3.35;;;11.10;98.80;;;;;;2057470;28;20056;-74
2021/05/16 04:29:20;;;;;;;4.20;3.50;;;11.10;98.80;;;;;;2057292;28;20031;-73
2021/05/16 04:30:21;;;;;;;4.00;3.60;;;11.10;98.80;;;;;;2057391;28;20031;-73
2021/05/16 04:31:21;;;;;;;4.88;3.70;;;11.20;98.90;;;;;;2057324;28;20022;-74
2021/05/16 04:32:22;;;;;;;4.28;3.60;;;11.10;99.10;;;;;;2057335;28;20019;-74
2021/05/16 04:33:23;;;;;;;4.20;3.80;;;11.20;98.80;;;;;;2057418;28;20050;-73
2021/05/16 04:34:23;;;;;;;4.03;3.63;;;11.20;98.90;;;;;;2048743;29;20047;-74
2021/05/16 04:35:24;;;;;;;4.10;3.65;;;11.20;98.90;;;;;;2048774;29;20522;-76
2021/05/16 04:36:26;;;;;;;4.88;4.15;;;11.20;98.80;;;;;;2056792;28;20090;-72
2021/05/16 04:37:26;;;;;;;4.20;3.80;;;11.20;98.70;;;;;;2049466;28;20031;-74
2021/05/16 04:38:27;;;;;;;4.82;3.80;;;11.20;98.70;;;;;;2057200;28;20030;-73
2021/05/16 04:39:28;;;;;;;5.78;4.38;;;11.20;98.70;;;;;;2057395;28;20473;-74
2021/05/16 04:40:28;;;;;;;4.65;4.07;;;11.30;98.60;;;;;;2048663;29;20573;-74
2021/05/16 04:41:29;;;;;;;4.75;4.15;;;11.30;98.60;;;;;;2048641;29;20114;-74
2021/05/16 04:42:30;;;;;;;4.88;4.38;;;11.30;98.60;;;;;;2048840;29;20406;-74
2021/05/16 04:43:30;;;;;;;5.90;5.00;;;11.30;98.50;;;;;;2057309;28;20030;-74
2021/05/16 04:44:31;;;;;;;5.78;4.60;;;11.30;98.50;;;;;;2048735;29;20107;-75
2021/05/16 04:45:32;;;;;;;5.75;4.80;;;11.30;98.40;;;;;;2048734;29;20379;-75
2021/05/16 04:46:33;;;;;;;5.20;4.70;;;11.30;98.50;;;;;;2056750;28;20486;-74
2021/05/16 04:47:34;;;;;;;4.93;4.38;;;11.30;98.50;;;;;;2057305;28;20031;-74
2021/05/16 04:48:34;;;;;;;5.13;4.28;;;11.30;98.50;;;;;;2057245;28;20134;-74
2021/05/16 04:49:35;;;;;;;4.88;4.22;;;11.30;98.60;;;;;;2057123;28;20035;-74
2021/05/16 04:50:36;;;;;;;4.30;3.88;;;11.30;98.50;;;;;;2057392;28;20054;-73
2021/05/16 04:51:36;;;;;;;4.60;4.20;;;11.40;98.50;;;;;;2057226;28;20030;-74
2021/05/16 04:52:37;;;;;;;4.60;4.10;;;11.40;98.50;;;;;;2057195;28;20034;-73
2021/05/16 04:53:38;;;;;;;5.40;4.80;;;11.40;98.60;;;;;;2048704;29;20584;-73
2021/05/16 04:54:38;;;;;;;4.90;4.40;;;11.40;98.30;;;;;;2048701;29;20027;-74
2021/05/16 04:55:39;;;;;;;4.85;4.35;;;11.40;98.40;;;;;;2057237;28;20074;-74
2021/05/16 04:56:39;;;;;;;4.85;4.35;;;11.50;98.50;;;;;;2056698;28;20038;-74
2021/05/16 04:57:41;;;;;;;5.05;4.55;;;11.50;98.50;;;;;;2056633;28;20026;-74
2021/05/16 04:58:41;;;;;;;5.95;5.15;;;11.60;98.40;;;;;;2057132;28;20038;-74
2021/05/16 04:59:42;;;;;;;5.47;4.50;;;11.60;98.10;;;;;;2057166;28;20109;-74
2021/05/16 05:00:42;;;;;;;5.78;5.18;;;11.60;98.20;;;;;;2057807;28;20073;-74
2021/05/16 05:01:43;;;;;;;5.15;4.60;;;11.60;98.10;;;;;;2058224;28;20065;-74
2021/05/16 05:02:46;;;;;;;5.35;4.75;;;11.70;97.90;;;;;;2057467;28;20537;-74
2021/05/16 05:03:46;;;;;;;5.53;4.80;;;11.70;97.80;;;;;;2048478;29;20069;-73
2021/05/16 05:04:47;;;;;;;5.50;4.68;;;11.80;97.80;;;;;;2048603;29;20031;-73
2021/05/16 05:05:51;;;;;;;5.35;4.85;;;11.80;97.80;;;;;;2057249;28;20073;-74
2021/05/16 05:06:52;;;;;;;4.95;4.43;;;11.80;97.70;;;;;;2056701;28;20091;-74
2021/05/16 05:07:53;;;;;;;5.57;5.07;;;11.80;97.60;;;;;;2048489;29;20159;-74
2021/05/16 05:08:54;;;;;;;5.50;5.00;;;11.80;97.40;;;;;;2048532;28;20027;-74
2021/05/16 05:09:55;;;;;;;5.63;4.85;;;11.80;97.30;;;;;;2048655;29;20046;-74
2021/05/16 05:10:55;;;;;;;5.47;4.93;;;11.80;97.30;;;;;;2048609;29;20129;-74
2021/05/16 05:11:56;;;;;;;6.90;5.13;;;11.80;97.20;;;;;;2048683;29;20164;-75
2021/05/16 05:12:57;;;;;;;5.90;4.80;;;11.80;97.30;;;;;;2057223;28;20536;-74
2021/05/16 05:13:57;;;;;;;5.47;4.90;;;11.80;97.30;;;;;;2057085;28;20038;-74
2021/05/16 05:14:58;;;;;;;4.97;4.40;;;11.80;97.50;;;;;;2057239;28;20031;-73
2021/05/16 05:15:58;;;;;;;5.57;4.97;;;11.80;97.40;;;;;;2056750;28;20455;-73
2021/05/16 05:16:59;;;;;;;5.07;4.53;;;11.80;97.40;;;;;;2057062;28;20042;-73
2021/05/16 05:18:00;;;;;;;6.10;5.25;;;11.80;97.40;;;;;;2057133;28;20037;-73
2021/05/16 05:19:00;;;;;;;5.50;4.90;;;11.80;97.20;;;;;;2057134;28;20026;-74
2021/05/16 05:20:01;;;;;;;4.90;4.40;;;11.80;96.90;;;;;;2057071;28;20042;-73
2021/05/16 05:21:02;;;;;;;5.03;4.53;;;11.80;97.20;;;;;;2057075;28;20031;-73
2021/05/16 05:22:02;;;;;;;5.03;3.97;;;11.80;97.10;;;;;;2057142;28;20026;-73